This is the latest recevied weather packets stored in our database for station/object E25RIV-1. If no packets are shown the sender has not sent any weather packets the latest 10 day(s).
| Time | Temp. | Humidity | Pressure | Rain* | Wind** | Luminosity | Snow |
|---|---|---|---|---|---|---|---|
| 1777904028 | 26.11° C | 99% | 1006 hPa | - | - | 0 W/m² | - |
| 1777903404 | 26.11° C | 99% | 1005 hPa | - | - | 0 W/m² | - |
| 1777902781 | 26.11° C | 99% | 1005 hPa | - | - | 0 W/m² | - |
| 1777902156 | 26.11° C | 99% | 1005 hPa | - | - | 0 W/m² | - |
| 1777901532 | 26.11° C | 99% | 1005 hPa | - | - | 0 W/m² | - |
| 1777900909 | 26.11° C | 99% | 1005 hPa | - | - | 0 W/m² | - |
| 1777900284 | 26.11° C | 99% | 1005 hPa | - | - | 0 W/m² | - |
| 1777899663 | 26.11° C | 99% | 1005 hPa | - | - | 0 W/m² | - |
| 1777899036 | 26.11° C | 99% | 1004 hPa | - | - | 0 W/m² | - |
| 1777898413 | 26.11° C | 99% | 1004 hPa | - | - | 0 W/m² | - |
| 1777897788 | 26.11° C | 99% | 1004 hPa | - | - | 0 W/m² | - |
| 1777897180 | 26.11° C | 99% | 1004 hPa | - | - | 0 W/m² | - |
| 1777896540 | 26.11° C | 99% | 1004 hPa | - | - | 0 W/m² | - |
| 1777895916 | 26.11° C | 99% | 1004 hPa | - | - | 0 W/m² | - |
| 1777895292 | 26.11° C | 99% | 1004 hPa | - | - | 0 W/m² | - |
| 1777894759 | 26.11° C | 99% | 1004 hPa | - | - | 0 W/m² | - |
| 1777894053 | 26.11° C | 99% | 1003 hPa | - | - | 0 W/m² | - |
| 1777893420 | 26.11° C | 99% | 1003 hPa | - | - | 0 W/m² | - |
| 1777892797 | 25.56° C | 99% | 1003 hPa | - | - | 0 W/m² | - |
| 1777892173 | 25° C | 99% | 1003 hPa | - | - | 0 W/m² | - |
| 1777891549 | 24.44° C | 99% | 1003 hPa | - | - | 0 W/m² | - |
| 1777879188 | 27.22° C | 99% | 1004 hPa | - | - | 0 W/m² | - |
| 1777878565 | 29.44° C | 89% | 1008 hPa | - | - | 0 W/m² | - |
| 1777877940 | 35° C | 57% | 998 hPa | - | - | 0 W/m² | - |
| 1777877316 | 35.56° C | 52% | 994 hPa | - | - | 0 W/m² | - |
* Rain since midnight (hover to see other rain measurements)
** Current wind speed in m/s (hover to see current wind gust speed)